Details From GVAC - Sal Amilcar Cabral Intl
To DIYO - Yamoussoukro
Flight Number -
Tags Multipart Generated
Created
Modified
Stats Distance 1,190 nm / 2,203 km
Max Altitude 0 ft / 0 m
Waypoints 3
Social Downloads 36
Likes 0
Share

Download

Looking for another format? Having issues loading an existing format? Contact us
Advertisement - Login to hide

Notes

Generated

Route

GVAC YAM DIYO

ID Type Via Altitude (ft/m) Position (lat/lon) Dist (leg/tot) Name
O GVAC APT - 0 / 0 16.73667 / -22.95800 - / 0 nm
YAM VOR - 0 / 0 6.88889 / -5.37886 1189 / 1189 nm YAMOUSSOUKRO VOR-DME
O DIYO APT - 0 / 0 6.89302 / -5.37475 0 / 1189 nm

Altitude Profile

Advertisement - Login to hide

Weather


0- 5 10 15 20 25 30 35+ Temperature / °C

Clouds and Precipitation
Forecast for 2022-05-26 18:00 UTC. Updated 3 hours ago

Ground ~20,000 ft ~40,000 ft Winds

GVAC

Details ICAO GVAC (SID)
Name Espargos-Amilcar Cabral Intl
Region Cape Verde
Timezone Atlantic/Cape_Verde (UTC-1.0)
Stats Elevation 184 ft / 56 m (AMSL)
Location 16.737600° -22.950000°
Runways 1
Magnetic Variation 8.720° W

METAR

GVAC 261800Z 06013KT 9999 BKN014 24/18 Q1015 NOSIG

Decode

TAF

TAF GVAC 261700Z 2618/2724 03010KT 9999 SCT014 TEMPO 2700/2708 BKN014

Decode

Departure Runways

ID Width Length Bearing (true/mag) Surface Threshold Overrun Markings Lighting
01 148 ft / 45 m 10,781 ft / 3,286 m 359.61° / 8.33° ASPHALT 879 ft / 268 m 0 ft / 0 m PREC-APP CENTERLINE EDGE THRESHOLD MALSR TDZ
19 148 ft / 45 m 10,781 ft / 3,286 m 179.61° / 188.33° ASPHALT 0 ft / 0 m 0 ft / 0 m PREC-APP CENTERLINE EDGE THRESHOLD MALSR TDZ

DIYO

Details ICAO DIYO (ASK)
Name Yamoussoukro
Region Côte d'Ivoire
Timezone Africa/Abidjan (UTC+0.0)
Stats Elevation 697 ft / 212 m (AMSL)
Location 6.903150° -5.366170°
Runways 1
Magnetic Variation 4.217° W

METAR

DIYO 261700Z 20004KT 9999 BKN015 FEW020CB 31/23 Q1013 NOSIG

Decode

TAF

TAF DIYO 261143Z 2612/2712 24008KT 9999 SCT013 PROB30 TEMPO 2616/2622 TS BKN013 FEW025CB TEMPO 2705/2708 4000 BR

Decode

Destination Runways

ID Width Length Bearing (true/mag) Surface Threshold Overrun Markings Lighting
05 148 ft / 45 m 9,881 ft / 3,012 m 41.57° / 45.79° ASPHALT 0 ft / 0 m 331 ft / 101 m APP EDGE THRESHOLD SSALF
23 148 ft / 45 m 9,881 ft / 3,012 m 221.58° / 225.79° ASPHALT 0 ft / 0 m 331 ft / 101 m APP EDGE THRESHOLD SSALR